Time;durP1;ratioP1;P1;durP2;ratioP2;P2;SDS_P1;SDS_P2;PMS_P1;PMS_P2;Temp;Humidity;BMP_temperature;BMP_pressure;BME280_temperature;BME280_humidity;BME280_pressure;Samples;Min_cycle;Max_cycle;Signal;HPM_P1;HPM_P2
2021/09/06 00:00:44;;;;;;;6.35;4.00;;;;;;;10.25;55.31;99383.56;4929700;29;20030;-72
2021/09/06 00:03:10;;;;;;;7.68;3.92;;;;;;;10.22;54.71;99383.28;4929927;29;20031;-72
2021/09/06 00:05:37;;;;;;;8.98;4.13;;;;;;;10.20;55.22;99388.22;4931163;29;20020;-71
2021/09/06 00:08:02;;;;;;;7.45;4.22;;;;;;;10.12;55.54;99386.84;4934423;29;20103;-72
2021/09/06 00:10:41;;;;;;;6.60;4.43;;;;;;;10.09;54.91;99379.94;4948551;29;20126;-72
2021/09/06 00:13:09;;;;;;;7.47;4.43;;;;;;;10.06;55.09;99383.22;4933776;29;20032;-72
2021/09/06 00:15:37;;;;;;;8.70;4.57;;;;;;;10.00;55.25;99378.81;4933378;29;20042;-71
2021/09/06 00:18:03;;;;;;;6.65;3.85;;;;;;;9.93;55.51;99384.56;4934182;29;20039;-71
2021/09/06 00:20:30;;;;;;;6.60;3.80;;;;;;;9.86;55.55;99386.72;4934539;29;20051;-71
2021/09/06 00:22:55;;;;;;;5.43;3.97;;;;;;;9.77;55.92;99383.69;4935036;29;20079;-72
2021/09/06 00:25:21;;;;;;;6.70;4.32;;;;;;;9.75;55.53;99385.06;4934599;29;20039;-71
2021/09/06 00:27:46;;;;;;;6.78;4.05;;;;;;;9.70;55.98;99387.78;4934905;29;20055;-71
2021/09/06 00:30:12;;;;;;;8.15;4.25;;;;;;;9.64;56.32;99390.50;4947311;29;20028;-71
2021/09/06 00:32:37;;;;;;;9.30;5.53;;;;;;;9.56;56.19;99382.78;4934503;29;20118;-71
2021/09/06 00:35:03;;;;;;;7.72;4.65;;;;;;;9.51;56.56;99385.50;4934485;29;20035;-72
2021/09/06 00:37:28;;;;;;;8.07;4.57;;;;;;;9.49;56.42;99384.94;4935210;29;20031;-71
2021/09/06 00:39:53;;;;;;;6.35;4.32;;;;;;;9.47;56.24;99390.69;4934473;29;20040;-71
2021/09/06 00:42:19;;;;;;;6.80;4.25;;;;;;;9.48;57.16;99389.59;4934889;29;20449;-72
2021/09/06 00:44:44;;;;;;;6.75;4.10;;;;;;;9.51;56.67;99390.97;4934711;29;20110;-72
2021/09/06 00:47:10;;;;;;;7.95;4.13;;;;;;;9.52;57.11;99393.47;4934453;29;20038;-71
2021/09/06 00:49:35;;;;;;;6.82;4.13;;;;;;;9.51;57.25;99391.81;4935018;29;20032;-71
2021/09/06 00:52:01;;;;;;;7.07;4.28;;;;;;;9.50;57.01;99383.84;4934654;29;20456;-72
2021/09/06 00:54:26;;;;;;;6.15;4.10;;;;;;;9.51;57.25;99385.50;4934181;29;20039;-72
2021/09/06 00:56:53;;;;;;;7.30;4.28;;;;;;;9.46;57.45;99383.56;4934310;29;20047;-71
2021/09/06 00:59:18;;;;;;;5.55;4.00;;;;;;;9.44;56.80;99380.28;4934351;29;20035;-71
2021/09/06 01:01:44;;;;;;;7.45;4.05;;;;;;;9.38;57.09;99389.53;4934638;29;20040;-71
2021/09/06 01:04:10;;;;;;;7.25;4.38;;;;;;;9.29;56.93;99391.13;4935319;29;20043;-72
2021/09/06 01:06:35;;;;;;;9.80;5.03;;;;;;;9.19;57.48;99380.94;4933835;29;20086;-72
2021/09/06 01:09:00;;;;;;;9.30;4.90;;;;;;;9.16;57.14;99387.78;4934357;29;20031;-71
2021/09/06 01:11:26;;;;;;;9.60;5.22;;;;;;;9.13;57.05;99388.31;4934217;29;20028;-71
2021/09/06 01:13:51;;;;;;;7.15;4.05;;;;;;;9.08;57.41;99391.00;4934213;29;20028;-71
2021/09/06 01:16:18;;;;;;;6.68;3.97;;;;;;;9.08;57.47;99391.81;4933958;29;20039;-71
2021/09/06 01:18:43;;;;;;;7.13;4.20;;;;;;;9.05;57.35;99389.59;4935328;29;20032;-71
2021/09/06 01:21:09;;;;;;;7.50;4.13;;;;;;;9.04;57.80;99396.16;4934320;29;20552;-71
2021/09/06 01:23:34;;;;;;;6.18;4.10;;;;;;;9.04;58.05;99400.84;4948701;29;20016;-71
2021/09/06 01:26:00;;;;;;;10.00;4.55;;;;;;;9.07;57.92;99398.38;4933614;29;20027;-71
2021/09/06 01:28:25;;;;;;;7.05;4.20;;;;;;;9.09;58.41;99398.94;4934037;29;20488;-71
2021/09/06 01:30:51;;;;;;;6.93;4.05;;;;;;;9.12;58.51;99391.28;4933981;29;20102;-71
2021/09/06 01:33:16;;;;;;;6.85;4.05;;;;;;;9.15;58.39;99391.63;4934205;29;20060;-71
2021/09/06 01:35:41;;;;;;;7.57;3.85;;;;;;;9.19;58.86;99398.19;4933745;29;20365;-71
2021/09/06 01:38:07;;;;;;;7.78;3.97;;;;;;;9.22;58.83;99383.16;4933933;29;20055;-71
2021/09/06 01:40:32;;;;;;;7.18;4.15;;;;;;;9.24;58.91;99386.47;4933891;29;20035;-72
2021/09/06 01:42:57;;;;;;;7.63;4.50;;;;;;;9.22;58.58;99383.97;4934058;29;20028;-71
2021/09/06 01:45:23;;;;;;;9.35;5.05;;;;;;;9.21;58.56;99382.31;4932758;29;20445;-72
2021/09/06 01:47:48;;;;;;;6.70;4.35;;;;;;;9.19;58.21;99389.97;4933857;29;20031;-72
2021/09/06 01:50:14;;;;;;;7.38;4.13;;;;;;;9.20;58.07;99388.06;4934696;29;20070;-72
2021/09/06 01:52:39;;;;;;;8.63;4.57;;;;;;;9.21;58.63;99385.06;4934709;28;20051;-71
2021/09/06 01:55:06;;;;;;;9.80;4.78;;;;;;;9.17;58.50;99391.34;4933597;29;20476;-71
2021/09/06 01:57:31;;;;;;;9.35;4.60;;;;;;;9.07;58.23;99394.84;4933982;29;20043;-72
2021/09/06 01:59:57;;;;;;;8.70;4.53;;;;;;;9.00;58.33;99391.50;4934486;29;20023;-72
2021/09/06 02:02:23;;;;;;;10.10;5.43;;;;;;;8.89;58.70;99391.41;4935388;29;20032;-71
2021/09/06 02:04:49;;;;;;;8.82;5.28;;;;;;;8.81;58.45;99391.09;4933341;29;20039;-72
2021/09/06 02:07:14;;;;;;;9.38;6.00;;;;;;;8.73;58.83;99400.59;4933624;29;20032;-71
2021/09/06 02:09:40;;;;;;;9.68;5.22;;;;;;;8.68;58.40;99393.16;4934052;29;20158;-71
2021/09/06 02:12:06;;;;;;;11.45;5.60;;;;;;;8.62;58.90;99395.03;4933689;29;20034;-70
2021/09/06 02:14:32;;;;;;;9.77;5.13;;;;;;;8.56;59.12;99398.00;4933433;29;20469;-72
2021/09/06 02:16:57;;;;;;;9.77;5.32;;;;;;;8.48;59.19;99404.72;4933191;29;20031;-71
2021/09/06 02:19:22;;;;;;;7.70;5.05;;;;;;;8.45;59.56;99397.03;4933703;29;20031;-72
2021/09/06 02:21:48;;;;;;;10.60;5.63;;;;;;;8.43;59.19;99397.28;4933253;29;20492;-72
2021/09/06 02:24:14;;;;;;;9.75;6.15;;;;;;;8.46;59.07;99399.53;4934004;29;20071;-71
2021/09/06 02:26:39;;;;;;;11.18;5.65;;;;;;;8.46;59.94;99396.78;4933291;29;20047;-72
2021/09/06 02:29:04;;;;;;;10.38;5.35;;;;;;;8.44;59.02;99396.22;4947470;28;20078;-72
2021/09/06 02:31:30;;;;;;;9.07;5.88;;;;;;;8.48;60.01;99393.78;4933530;29;20035;-72
2021/09/06 02:33:55;;;;;;;11.15;5.70;;;;;;;8.49;59.18;99393.56;4932376;29;20019;-72
2021/09/06 02:36:21;;;;;;;8.18;5.30;;;;;;;8.52;59.32;99396.88;4932896;29;20024;-72
2021/09/06 02:38:46;;;;;;;8.98;4.82;;;;;;;8.47;59.40;99389.38;4933842;29;20020;-72
2021/09/06 02:41:12;;;;;;;8.95;5.63;;;;;;;8.47;59.39;99389.38;4933390;29;20495;-72
2021/09/06 02:43:38;;;;;;;11.30;6.53;;;;;;;8.45;59.89;99391.56;4948046;29;20024;-72
2021/09/06 02:46:03;;;;;;;10.50;6.45;;;;;;;8.38;59.49;99397.25;4933290;29;20110;-72
2021/09/06 02:48:28;;;;;;;13.55;6.35;;;;;;;8.32;59.35;99393.66;4933059;29;20035;-71
2021/09/06 02:50:54;;;;;;;11.57;6.30;;;;;;;8.31;59.41;99402.09;4932800;29;20028;-70
2021/09/06 02:53:19;;;;;;;11.95;5.68;;;;;;;8.26;59.30;99399.31;4932476;29;20503;-72
2021/09/06 02:55:44;;;;;;;10.75;5.65;;;;;;;8.26;59.59;99393.84;4947727;29;20027;-72
2021/09/06 02:58:10;;;;;;;9.93;6.00;;;;;;;8.28;59.57;99400.72;4947281;29;20023;-72
2021/09/06 03:00:35;;;;;;;9.23;5.75;;;;;;;8.29;59.79;99388.69;4947824;28;20028;-72
2021/09/06 03:03:00;;;;;;;8.80;5.90;;;;;;;8.28;59.53;99397.13;4932720;29;20028;-72
2021/09/06 03:05:26;;;;;;;10.18;5.78;;;;;;;8.28;59.44;99400.72;4947271;29;20405;-72
2021/09/06 03:07:51;;;;;;;8.88;5.28;;;;;;;8.31;59.77;99397.47;4932497;29;20020;-72
2021/09/06 03:10:17;;;;;;;10.18;5.97;;;;;;;8.33;59.80;99399.94;4932790;29;20423;-72
2021/09/06 03:12:42;;;;;;;12.93;5.95;;;;;;;8.30;59.68;99398.53;4931967;29;20492;-72
2021/09/06 03:15:08;;;;;;;10.60;5.50;;;;;;;8.26;59.63;99400.16;4932517;29;20094;-72
2021/09/06 03:17:33;;;;;;;7.82;5.30;;;;;;;8.25;59.20;99395.75;4926749;29;20074;-72
2021/09/06 03:19:59;;;;;;;8.10;4.72;;;;;;;8.21;59.86;99397.34;4931363;29;20040;-71
2021/09/06 03:22:24;;;;;;;9.57;5.32;;;;;;;8.19;59.88;99399.50;4932302;29;20031;-71
2021/09/06 03:24:49;;;;;;;6.72;4.72;;;;;;;8.17;60.01;99397.03;4932389;29;20083;-72
2021/09/06 03:27:16;;;;;;;9.90;4.85;;;;;;;8.13;60.07;99392.34;4931802;29;20107;-71
2021/09/06 03:29:41;;;;;;;8.38;5.07;;;;;;;8.12;59.46;99386.06;4932733;29;20043;-71
2021/09/06 03:32:07;;;;;;;8.32;4.78;;;;;;;8.13;59.85;99389.59;4932150;29;20414;-70
2021/09/06 03:34:33;;;;;;;7.63;4.13;;;;;;;8.10;59.84;99382.75;4931822;29;20043;-72
2021/09/06 03:36:58;;;;;;;7.28;4.55;;;;;;;8.08;59.80;99389.56;4931731;29;20038;-72
2021/09/06 03:39:23;;;;;;;7.85;4.57;;;;;;;8.10;59.87;99384.66;4930622;29;20531;-71
2021/09/06 03:41:49;;;;;;;7.35;4.53;;;;;;;8.11;60.13;99384.41;4934686;29;20114;-72
2021/09/06 03:44:14;;;;;;;9.48;5.07;;;;;;;8.10;59.76;99384.66;4935905;29;20038;-72
2021/09/06 03:46:40;;;;;;;8.23;4.63;;;;;;;8.07;59.80;99387.91;4935927;29;20094;-72
2021/09/06 03:49:05;;;;;;;10.07;5.45;;;;;;;7.99;59.66;99384.53;4933521;29;20484;-72
2021/09/06 03:51:31;;;;;;;9.95;5.85;;;;;;;7.93;60.05;99387.47;4936000;29;20031;-72
2021/09/06 03:53:56;;;;;;;10.43;5.45;;;;;;;7.89;59.93;99393.44;4950302;29;20034;-72
2021/09/06 03:56:21;;;;;;;8.68;5.85;;;;;;;7.89;60.00;99393.44;4935024;29;20114;-72
2021/09/06 03:58:47;;;;;;;11.15;6.63;;;;;;;7.92;60.22;99394.88;4935233;29;20039;-72
2021/09/06 04:01:12;;;;;;;17.05;5.70;;;;;;;7.96;60.33;99389.69;4936515;29;20020;-71
2021/09/06 04:03:37;;;;;;;8.07;5.20;;;;;;;7.94;60.33;99395.44;4936073;29;20024;-72
2021/09/06 04:06:03;;;;;;;11.88;5.90;;;;;;;7.92;59.63;99396.75;4935753;29;20027;-72
2021/09/06 04:08:28;;;;;;;9.98;5.50;;;;;;;7.88;60.29;99388.25;4934529;29;20122;-73
2021/09/06 04:10:54;;;;;;;10.13;5.07;;;;;;;7.90;60.64;99394.28;4935611;29;20063;-72
2021/09/06 04:13:20;;;;;;;11.05;5.10;;;;;;;7.86;60.20;99390.41;4936093;29;20031;-72
2021/09/06 04:15:47;;;;;;;10.40;5.07;;;;;;;7.82;59.76;99386.53;4950199;28;20456;-72
2021/09/06 04:18:14;;;;;;;11.05;5.30;;;;;;;7.82;60.10;99394.75;4936720;29;20034;-72
2021/09/06 04:20:39;;;;;;;8.43;5.22;;;;;;;7.84;60.24;99393.38;4934588;29;20040;-72
2021/09/06 04:23:05;;;;;;;7.80;5.20;;;;;;;7.82;60.21;99394.75;4934178;29;20051;-72
2021/09/06 04:25:30;;;;;;;8.90;5.35;;;;;;;7.84;60.18;99400.78;4934732;29;20114;-72
2021/09/06 04:27:55;;;;;;;13.75;5.63;;;;;;;7.80;59.97;99399.63;4934775;29;20091;-72
2021/09/06 04:30:21;;;;;;;9.57;5.65;;;;;;;7.83;59.99;99399.13;4948635;29;20825;-71
2021/09/06 04:32:46;;;;;;;11.90;6.03;;;;;;;7.82;60.38;99402.94;4933367;29;20090;-70
2021/09/06 04:35:11;;;;;;;9.98;5.65;;;;;;;7.84;60.76;99403.50;4933416;29;20042;-70
2021/09/06 04:37:37;;;;;;;12.68;6.20;;;;;;;7.83;60.60;99413.59;4933406;29;20034;-71
2021/09/06 04:40:03;;;;;;;12.48;5.97;;;;;;;7.85;60.51;99424.28;4933305;29;20739;-70
2021/09/06 04:42:28;;;;;;;14.57;5.82;;;;;;;7.86;60.55;99407.63;4933447;29;20051;-71
2021/09/06 04:44:54;;;;;;;12.40;5.40;;;;;;;7.87;60.21;99416.66;4934331;29;20074;-71
2021/09/06 04:47:20;;;;;;;11.55;6.10;;;;;;;7.94;60.95;99413.72;4934974;29;21389;-69
2021/09/06 04:49:45;;;;;;;8.90;5.25;;;;;;;7.98;60.76;99414.84;4949958;29;20050;-71
2021/09/06 04:52:12;;;;;;;11.07;4.88;;;;;;;8.02;60.82;99416.81;4934374;29;20023;-72
2021/09/06 04:54:37;;;;;;;11.90;5.32;;;;;;;8.07;60.92;99410.59;4934779;29;20547;-71
2021/09/06 04:57:03;;;;;;;7.60;4.72;;;;;;;8.11;61.12;99414.47;4934513;29;20035;-72
2021/09/06 04:59:28;;;;;;;7.85;4.78;;;;;;;8.16;60.66;99419.16;4934557;29;20043;-71
2021/09/06 05:01:53;;;;;;;8.18;4.93;;;;;;;8.22;61.12;99423.59;4949248;29;20082;-72
2021/09/06 05:04:19;;;;;;;7.43;4.82;;;;;;;8.29;61.28;99424.22;4935062;29;20066;-72
2021/09/06 05:06:44;;;;;;;7.15;4.93;;;;;;;8.38;61.41;99423.75;4934327;29;20107;-71
2021/09/06 05:09:09;;;;;;;8.88;5.80;;;;;;;8.47;61.14;99427.66;4935045;29;20084;-71
2021/09/06 05:11:35;;;;;;;8.18;5.05;;;;;;;8.54;61.15;99427.50;4936183;29;20067;-72
2021/09/06 05:14:00;;;;;;;9.27;5.60;;;;;;;8.59;61.08;99436.56;4935235;29;20476;-72
2021/09/06 05:16:26;;;;;;;9.35;5.35;;;;;;;8.66;61.89;99427.34;4935247;29;20036;-71
2021/09/06 05:18:51;;;;;;;10.25;6.28;;;;;;;8.74;61.73;99427.69;4950023;29;20028;-71
2021/09/06 05:21:17;;;;;;;8.02;5.30;;;;;;;8.73;62.10;99441.63;4935062;29;20031;-71
2021/09/06 05:23:42;;;;;;;8.20;5.40;;;;;;;8.75;62.28;99437.53;4935375;29;20488;-72
2021/09/06 05:26:08;;;;;;;7.78;4.93;;;;;;;8.81;62.33;99449.34;4935038;29;20027;-72
2021/09/06 05:28:33;;;;;;;7.57;4.55;;;;;;;8.85;62.60;99441.44;4935217;29;20102;-72
2021/09/06 05:31:02;;;;;;;8.18;4.68;;;;;;;8.92;63.27;99433.84;4935136;29;20086;-72
2021/09/06 05:33:27;;;;;;;10.43;4.93;;;;;;;9.01;62.63;99439.66;4935219;29;20032;-72
2021/09/06 05:35:53;;;;;;;6.78;4.60;;;;;;;9.07;62.64;99438.63;4934832;29;20385;-73
2021/09/06 05:38:18;;;;;;;7.13;4.68;;;;;;;9.15;63.09;99437.28;4934892;29;20032;-72
2021/09/06 05:40:43;;;;;;;7.95;5.03;;;;;;;9.21;63.56;99430.78;4949471;29;20154;-72
2021/09/06 05:43:09;;;;;;;9.07;4.70;;;;;;;9.28;63.78;99422.31;4935088;29;20090;-72
2021/09/06 05:45:34;;;;;;;5.97;4.07;;;;;;;9.35;63.07;99428.41;4934767;29;20035;-71
2021/09/06 05:48:00;;;;;;;9.85;4.68;;;;;;;9.46;63.43;99437.50;4936077;29;20031;-71
2021/09/06 05:50:26;;;;;;;9.20;5.07;;;;;;;9.55;63.43;99440.56;4938472;29;20027;-71
2021/09/06 05:52:52;;;;;;;10.93;5.53;;;;;;;9.59;63.63;99439.78;4938361;29;20055;-71
2021/09/06 05:55:17;;;;;;;9.63;5.10;;;;;;;9.67;63.60;99439.28;4938454;29;20047;-72
2021/09/06 05:57:43;;;;;;;8.70;4.97;;;;;;;9.77;62.85;99433.00;4937793;29;20027;-71
2021/09/06 06:00:09;;;;;;;9.27;5.10;;;;;;;9.81;63.88;99434.13;4934031;29;20047;-71
2021/09/06 06:02:35;;;;;;;8.65;4.78;;;;;;;9.87;63.41;99434.97;4934547;29;20020;-72
2021/09/06 06:05:01;;;;;;;7.10;4.47;;;;;;;9.90;63.94;99436.34;4934190;29;20030;-72
2021/09/06 06:07:26;;;;;;;8.88;4.88;;;;;;;9.94;63.56;99432.81;4934186;29;20040;-71
2021/09/06 06:09:53;;;;;;;8.23;4.43;;;;;;;9.98;64.40;99433.09;4949007;29;20460;-71
2021/09/06 06:12:18;;;;;;;8.95;5.35;;;;;;;10.02;64.29;99434.19;4934762;29;20086;-72
2021/09/06 06:14:44;;;;;;;7.13;4.53;;;;;;;10.10;63.65;99438.34;4934224;29;20472;-71
2021/09/06 06:17:09;;;;;;;7.28;4.20;;;;;;;10.12;64.53;99439.72;4934118;29;20028;-72
2021/09/06 06:19:35;;;;;;;7.47;4.55;;;;;;;10.13;64.53;99435.88;4934133;29;20042;-71
2021/09/06 06:22:01;;;;;;;9.27;4.47;;;;;;;10.20;64.31;99437.56;4933766;29;20047;-72
2021/09/06 06:24:26;;;;;;;8.70;4.53;;;;;;;10.29;64.13;99444.16;4933343;29;20028;-71
2021/09/06 06:26:51;;;;;;;10.23;6.30;;;;;;;10.41;64.81;99438.47;4933416;29;20016;-74
2021/09/06 06:29:17;;;;;;;7.78;4.80;;;;;;;10.51;65.07;99433.00;4932498;28;20119;-71
2021/09/06 06:31:42;;;;;;;10.30;5.05;;;;;;;10.59;64.33;99434.38;4933726;29;20127;-72
2021/09/06 06:34:08;;;;;;;7.75;4.28;;;;;;;10.67;64.06;99439.34;4933857;29;20070;-73
2021/09/06 06:36:33;;;;;;;7.25;4.38;;;;;;;10.70;64.14;99440.69;4933687;29;20119;-73
2021/09/06 06:38:58;;;;;;;9.63;4.72;;;;;;;10.76;64.32;99449.78;4933887;29;20156;-71
2021/09/06 06:41:24;;;;;;;7.75;4.45;;;;;;;10.83;64.40;99448.41;4948414;29;20127;-72
2021/09/06 06:43:49;;;;;;;7.47;4.75;;;;;;;10.96;64.08;99446.22;4933782;29;20039;-72
2021/09/06 06:46:17;;;;;;;7.82;4.05;;;;;;;11.08;64.52;99443.19;4933638;29;20387;-72
2021/09/06 06:48:42;;;;;;;6.72;4.45;;;;;;;11.20;64.28;99451.97;4933932;29;20034;-72
2021/09/06 06:51:07;;;;;;;7.95;3.67;;;;;;;11.27;64.20;99447.00;4933393;29;20031;-72
2021/09/06 06:53:33;;;;;;;9.10;4.65;;;;;;;11.36;63.75;99451.94;4933549;29;20127;-72
2021/09/06 06:55:58;;;;;;;9.25;4.20;;;;;;;11.45;63.55;99453.03;4946679;29;20127;-72
2021/09/06 06:58:25;;;;;;;10.23;4.53;;;;;;;11.53;63.70;99452.47;4933338;29;20082;-72
2021/09/06 07:00:51;;;;;;;7.70;3.97;;;;;;;11.57;63.12;99458.22;4932982;29;20051;-72
2021/09/06 07:03:16;;;;;;;18.73;8.18;;;;;;;11.62;63.55;99460.94;4933426;29;20500;-72
2021/09/06 07:05:42;;;;;;;30.92;11.30;;;;;;;11.72;63.33;99466.44;4933373;29;20028;-71
2021/09/06 07:08:07;;;;;;;12.25;4.53;;;;;;;11.82;62.77;99468.31;4933473;29;20027;-71
2021/09/06 07:10:32;;;;;;;15.55;6.40;;;;;;;11.90;62.88;99473.25;4933259;29;20036;-72
2021/09/06 07:12:58;;;;;;;10.68;5.00;;;;;;;11.96;62.69;99470.47;4933527;29;20055;-71
2021/09/06 07:15:24;;;;;;;9.82;4.28;;;;;;;12.00;62.32;99469.66;4932826;29;20032;-73
2021/09/06 07:17:49;;;;;;;8.38;4.15;;;;;;;12.08;61.70;99483.94;4933507;29;20062;-72
2021/09/06 07:20:14;;;;;;;9.00;3.90;;;;;;;12.16;62.36;99483.34;4933611;29;20388;-72
2021/09/06 07:22:40;;;;;;;7.43;3.47;;;;;;;12.25;61.88;99486.34;4933314;29;20453;-71
2021/09/06 07:25:06;;;;;;;7.70;4.03;;;;;;;12.28;61.43;99486.56;4932844;29;20082;-72
2021/09/06 07:27:31;;;;;;;7.72;4.00;;;;;;;12.37;61.19;99492.34;4932838;29;20048;-72
2021/09/06 07:29:57;;;;;;;7.15;3.63;;;;;;;12.45;61.03;99488.16;4941521;29;20084;-72
2021/09/06 07:32:22;;;;;;;7.05;4.00;;;;;;;12.53;60.73;99484.81;4946999;29;20023;-71
2021/09/06 07:34:47;;;;;;;7.53;3.33;;;;;;;12.58;61.00;99483.94;4932047;29;20047;-71
2021/09/06 07:37:13;;;;;;;5.80;3.20;;;;;;;12.62;60.16;99485.88;4932079;29;20031;-71
2021/09/06 07:39:38;;;;;;;5.70;3.30;;;;;;;12.72;60.03;99489.63;4947705;29;20043;-72
2021/09/06 07:42:04;;;;;;;7.10;3.45;;;;;;;12.80;59.87;99489.88;4932427;29;20035;-72
2021/09/06 07:44:30;;;;;;;5.45;3.15;;;;;;;12.94;60.21;99478.19;4932778;29;20026;-71
2021/09/06 07:46:57;;;;;;;6.25;2.80;;;;;;;13.03;60.20;99482.00;4932617;29;20035;-71
2021/09/06 07:49:22;;;;;;;5.68;3.08;;;;;;;13.15;59.99;99480.81;4932654;29;20112;-72
2021/09/06 07:51:52;;;;;;;7.38;3.53;;;;;;;13.27;59.51;99477.66;4947282;29;20127;-71
2021/09/06 07:54:18;;;;;;;;;;;;;;;13.40;58.89;99477.81;4931905;29;20035;-71
2021/09/06 07:56:46;;;;;;;5.53;2.95;;;;;;;13.53;58.84;99472.78;4932585;29;19922;-71
2021/09/06 07:59:11;;;;;;;4.72;2.40;;;;;;;13.61;58.67;99474.91;4932526;29;20111;-72
2021/09/06 08:01:37;;;;;;;4.05;2.22;;;;;;;13.72;57.88;99480.28;4932649;29;20107;-73
2021/09/06 08:04:02;;;;;;;4.70;2.55;;;;;;;13.80;58.06;99480.50;4932367;29;20504;-72
2021/09/06 08:06:27;;;;;;;3.30;1.90;;;;;;;13.91;57.40;99483.09;4932613;29;20038;-71
2021/09/06 08:08:53;;;;;;;6.07;2.60;;;;;;;14.01;56.70;99485.75;4932554;29;20047;-72
2021/09/06 08:11:18;;;;;;;4.05;2.30;;;;;;;14.12;56.88;99483.69;4932726;29;20035;-73
2021/09/06 08:13:44;;;;;;;4.43;2.20;;;;;;;14.24;56.78;99483.28;4932739;29;20083;-71
2021/09/06 08:16:09;;;;;;;4.32;2.42;;;;;;;14.34;56.38;99491.41;4932094;29;20028;-72
2021/09/06 08:18:34;;;;;;;5.20;2.50;;;;;;;14.43;56.05;99494.34;4932822;29;20028;-72
2021/09/06 08:21:00;;;;;;;6.88;2.75;;;;;;;14.54;55.52;99493.06;4932433;29;20024;-72
2021/09/06 08:23:25;;;;;;;4.43;2.25;;;;;;;14.65;54.75;99490.19;4932239;29;20502;-73
2021/09/06 08:25:50;;;;;;;4.50;1.90;;;;;;;14.72;54.50;99488.72;4932200;29;20038;-73
2021/09/06 08:28:16;;;;;;;3.40;2.00;;;;;;;14.78;54.79;99497.75;4934796;28;20188;-72
2021/09/06 08:31:00;;;;;;;3.55;1.83;;;;;;;14.85;53.87;99502.91;4936196;29;20075;-72
2021/09/06 08:33:25;;;;;;;3.50;1.85;;;;;;;14.90;54.00;99497.28;4935499;29;20035;-71
2021/09/06 08:35:51;;;;;;;3.60;1.77;;;;;;;14.98;54.01;99496.63;4935452;29;20134;-73
2021/09/06 08:38:18;;;;;;;2.83;1.77;;;;;;;15.05;52.75;99495.44;4936001;29;20570;-70
2021/09/06 08:40:43;;;;;;;4.28;2.03;;;;;;;15.09;52.98;99500.03;4932689;29;20060;-73
2021/09/06 08:43:09;;;;;;;3.50;1.90;;;;;;;15.23;53.85;99499.28;4935398;29;20578;-75
2021/09/06 08:45:36;;;;;;;3.92;1.90;;;;;;;15.33;53.15;99505.44;4935621;29;20039;-71
2021/09/06 08:48:02;;;;;;;3.03;1.80;;;;;;;15.41;52.51;99506.69;4934233;29;20138;-72
2021/09/06 08:50:29;;;;;;;5.95;2.10;;;;;;;15.52;52.10;99506.53;4933237;29;20032;-70
2021/09/06 08:52:54;;;;;;;4.72;1.75;;;;;;;15.58;51.55;99503.34;4934834;29;20079;-71
2021/09/06 08:55:20;;;;;;;4.82;2.03;;;;;;;15.65;51.44;99502.97;4934485;29;20396;-73
2021/09/06 08:57:45;;;;;;;2.75;1.63;;;;;;;15.74;51.85;99503.09;4934662;29;20030;-71
2021/09/06 09:00:11;;;;;;;4.85;2.00;;;;;;;15.83;52.02;99506.78;4934519;29;20040;-70
2021/09/06 09:02:40;;;;;;;4.30;1.58;;;;;;;15.94;51.03;99501.91;4934660;29;20031;-71
2021/09/06 09:05:08;;;;;;;2.70;1.63;;;;;;;16.03;51.75;99496.47;4934206;29;20115;-71
2021/09/06 09:07:34;;;;;;;3.50;2.03;;;;;;;16.09;50.35;99499.97;4934512;29;20055;-72
2021/09/06 09:10:00;;;;;;;3.90;2.10;;;;;;;16.16;50.23;99501.19;4934745;29;20043;-72
2021/09/06 09:12:28;;;;;;;3.83;2.70;;;;;;;16.20;50.52;99498.59;4935402;29;20434;-72
2021/09/06 09:14:58;;;;;;;3.45;2.00;;;;;;;16.25;49.80;99495.75;4934690;29;20447;-72
2021/09/06 09:17:25;;;;;;;3.45;1.83;;;;;;;16.31;49.50;99494.50;4934410;29;20070;-70
2021/09/06 09:19:51;;;;;;;3.22;2.05;;;;;;;16.40;49.41;99493.78;4934441;29;20122;-70
2021/09/06 09:22:29;;;;;;;3.22;1.45;;;;;;;16.50;49.77;99496.34;4934725;29;21123;-71
2021/09/06 09:24:57;;;;;;;3.38;1.88;;;;;;;16.58;49.60;99492.00;4932652;29;20074;-71
2021/09/06 09:27:31;;;;;;;6.10;2.13;;;;;;;16.61;49.46;99488.63;4933831;29;20405;-70
2021/09/06 09:29:56;;;;;;;3.97;2.25;;;;;;;16.65;48.61;99486.88;4932695;29;20020;-70
2021/09/06 09:32:22;;;;;;;3.22;1.58;;;;;;;16.70;48.12;99485.91;4934354;29;20090;-70
2021/09/06 09:34:47;;;;;;;3.03;2.00;;;;;;;16.76;49.28;99496.56;4932876;29;20189;-69
2021/09/06 09:37:24;;;;;;;3.28;2.00;;;;;;;16.86;48.75;99489.16;4932608;29;20055;-70
2021/09/06 09:39:54;;;;;;;3.30;2.08;;;;;;;16.90;48.42;99488.22;4934383;29;20481;-69
2021/09/06 09:42:19;;;;;;;5.72;2.60;;;;;;;16.95;48.64;99485.31;4934711;29;20027;-69
2021/09/06 09:44:47;;;;;;;3.03;1.77;;;;;;;17.02;48.78;99486.88;4934393;29;20043;-69
2021/09/06 09:47:14;;;;;;;3.00;1.50;;;;;;;17.06;48.62;99485.09;4947834;29;20400;-67
2021/09/06 09:49:41;;;;;;;4.65;1.85;;;;;;;17.14;48.63;99486.28;4934332;29;20035;-69
2021/09/06 09:52:07;;;;;;;4.35;1.63;;;;;;;17.22;48.26;99480.84;4932061;29;20031;-69
2021/09/06 09:54:34;;;;;;;4.93;1.80;;;;;;;17.30;48.49;99486.75;4933610;29;20023;-69
2021/09/06 09:56:59;;;;;;;3.40;1.60;;;;;;;17.34;47.83;99477.47;4947542;29;20042;-68
2021/09/06 09:59:25;;;;;;;2.38;1.63;;;;;;;17.36;47.25;99477.16;4932792;29;20028;-69
2021/09/06 10:01:55;;;;;;;4.68;1.70;;;;;;;17.38;47.61;99469.31;4933586;29;20027;-69
2021/09/06 10:04:25;;;;;;;3.40;1.35;;;;;;;17.42;47.35;99473.09;4948370;29;20028;-70
2021/09/06 10:06:52;;;;;;;3.60;1.75;;;;;;;17.48;47.48;99469.06;4933906;29;20023;-69
2021/09/06 10:09:18;;;;;;;3.63;1.65;;;;;;;17.55;47.10;99472.22;4933180;29;20024;-69
2021/09/06 10:11:44;;;;;;;3.80;1.48;;;;;;;17.61;46.57;99463.75;4934038;29;20042;-69
2021/09/06 10:14:14;;;;;;;3.20;1.38;;;;;;;17.67;46.77;99466.06;4932453;29;20369;-68
2021/09/06 10:16:39;;;;;;;;;;;;;;;17.73;46.85;99466.72;4933392;29;20047;-69
2021/09/06 10:19:07;;;;;;;2.70;1.33;;;;;;;17.79;46.51;99468.22;4931405;29;20406;-68
2021/09/06 10:21:39;;;;;;;2.38;1.52;;;;;;;17.84;46.71;99465.31;4931670;29;20043;-69
2021/09/06 10:24:16;;;;;;;3.10;1.50;;;;;;;17.92;46.28;99458.19;4931574;29;20063;-69
2021/09/06 10:26:42;;;;;;;3.72;1.48;;;;;;;17.97;45.62;99460.00;4931010;29;20028;-70
2021/09/06 10:29:33;;;;;;;4.40;1.60;;;;;;;17.99;45.48;99460.50;4930765;29;20066;-69
2021/09/06 10:32:03;;;;;;;3.35;1.30;;;;;;;18.02;44.60;99462.66;4930562;29;20043;-70
2021/09/06 10:34:29;;;;;;;2.90;1.50;;;;;;;18.04;45.43;99460.38;4929896;29;20112;-70
2021/09/06 10:37:04;;;;;;;2.22;1.45;;;;;;;18.08;44.19;99455.81;4933520;29;20063;-69
2021/09/06 10:39:31;;;;;;;2.63;1.50;;;;;;;18.08;43.49;99454.97;4932892;29;20034;-70
2021/09/06 10:42:06;;;;;;;3.13;1.55;;;;;;;18.15;44.62;99467.25;4932950;28;20122;-70
2021/09/06 10:44:37;;;;;;;2.60;1.52;;;;;;;18.17;43.84;99458.59;4932223;29;20047;-69
2021/09/06 10:47:08;;;;;;;2.35;1.40;;;;;;;18.22;44.33;99454.84;4931724;29;20035;-70
2021/09/06 10:49:37;;;;;;;2.05;1.23;;;;;;;18.25;42.76;99448.66;4932372;29;20020;-70
2021/09/06 10:52:03;;;;;;;2.40;1.40;;;;;;;18.25;43.55;99446.72;4932026;29;20027;-69
2021/09/06 10:54:28;;;;;;;2.67;1.48;;;;;;;18.29;43.55;99450.47;4932522;29;20581;-69
2021/09/06 10:56:54;;;;;;;4.50;1.33;;;;;;;18.36;44.11;99444.44;4932943;29;20376;-69
2021/09/06 10:59:24;;;;;;;2.40;1.40;;;;;;;18.47;43.76;99441.34;4932519;29;20047;-69
2021/09/06 11:01:52;;;;;;;2.67;1.67;;;;;;;18.55;43.18;99444.13;4933218;29;20034;-70
2021/09/06 11:04:18;;;;;;;2.78;1.80;;;;;;;18.54;43.07;99434.16;4933072;29;20420;-70
2021/09/06 11:06:43;;;;;;;3.97;1.67;;;;;;;18.55;43.54;99438.56;4932651;29;20036;-70
2021/09/06 11:09:08;;;;;;;4.25;1.60;;;;;;;18.64;43.86;99443.31;4947049;29;20058;-69
2021/09/06 11:11:34;;;;;;;2.47;1.40;;;;;;;18.66;43.78;99438.25;4932861;29;20059;-69
2021/09/06 11:13:59;;;;;;;3.20;1.38;;;;;;;18.72;43.78;99440.53;4933123;29;20059;-69
2021/09/06 11:16:35;;;;;;;3.53;1.63;;;;;;;18.82;44.16;99439.38;4932080;29;20079;-70
2021/09/06 11:19:11;;;;;;;3.13;1.67;;;;;;;18.92;43.94;99441.03;4929017;29;20040;-70
2021/09/06 11:21:37;;;;;;;2.97;1.70;;;;;;;18.96;43.45;99430.09;4931873;28;20039;-69
2021/09/06 11:24:02;;;;;;;2.83;1.52;;;;;;;19.00;42.90;99426.31;4931187;29;20082;-69
2021/09/06 11:26:31;;;;;;;3.85;1.67;;;;;;;19.05;42.84;99433.69;4930017;29;20028;-70
2021/09/06 11:28:57;;;;;;;3.13;1.63;;;;;;;19.11;42.78;99425.97;4929924;29;20055;-69
2021/09/06 11:31:24;;;;;;;2.88;1.40;;;;;;;19.19;42.77;99423.16;4929602;29;20755;-69